RU-0487 weather

Cherek
Cherek, Kabardino-Balkar Republic, Russia

Public forecast

Using degrees Celsius for public forecast. Weather courtesy of forecast.io.

METAR (pilot weather report)

Closest report is Nalchik Airport, 15.8 nm (29.2 km) W. Retrieved 2019/08/23 09:30 UTC (23 minutes ago):

URMN 230930Z 01002MPS 9999 NSC 31/09 Q1013 R24/010070 NOSIG RMK QFE722

TAF (pilot weather forecast)

Forecast is more than 12 hours old.

Closest forecast is Nalchik Airport, 15.8 nm (29.2 km) W. Retrieved 2019/07/24 06:12 UTC (1 month ago):

TAF TAF URMN 240500Z 2406/2418 07003MPS 9999 SCT030CB TEMPO 2406/2415 VRB07G12MPS 3100 -TSRA SCT009 BKN020CB